createdAt,value
2018-11-23T05:00:06.389Z,27.50
2018-11-23T05:02:34.323Z,26.80
2018-11-23T05:05:02.257Z,27.97
2018-11-23T05:07:30.185Z,29.70
2018-11-23T05:09:58.191Z,29.00
2018-11-23T05:12:26.109Z,28.30
2018-11-23T05:14:54.301Z,28.07
2018-11-23T05:17:22.237Z,25.77
2018-11-23T05:19:50.162Z,28.10
2018-11-23T05:22:18.065Z,27.37
2018-11-23T05:24:46.025Z,27.40
2018-11-23T05:27:13.929Z,28.70
2018-11-23T05:29:41.853Z,27.77
2018-11-23T05:32:09.761Z,29.67
2018-11-23T05:34:37.673Z,27.13
2018-11-23T05:37:05.695Z,27.10
2018-11-23T05:39:33.613Z,24.20
2018-11-23T05:42:01.529Z,23.97
2018-11-23T05:44:29.451Z,25.63
2018-11-23T05:46:57.377Z,22.67
2018-11-23T05:49:25.295Z,20.90
2018-11-23T05:51:53.213Z,21.53
2018-11-23T05:54:21.150Z,21.37
2018-11-23T05:56:49.133Z,21.30
2018-11-23T05:59:17.048Z,20.90
2018-11-23T06:01:44.977Z,23.07
2018-11-23T06:04:12.904Z,22.23
2018-11-23T06:06:42.550Z,21.80
2018-11-23T06:09:08.781Z,22.90
2018-11-23T06:11:36.805Z,23.20
2018-11-23T06:14:04.711Z,22.97
2018-11-23T06:16:33.646Z,20.97
2018-11-23T06:19:01.658Z,22.30
2018-11-23T06:21:29.609Z,22.23
2018-11-23T06:23:57.533Z,23.13
2018-11-23T06:26:26.200Z,23.07
2018-11-23T06:28:54.129Z,25.13
2018-11-23T06:31:22.050Z,23.57
2018-11-23T06:33:50.322Z,22.20
2018-11-23T06:36:18.260Z,23.67
2018-11-23T06:38:46.192Z,24.77
2018-11-23T06:41:14.132Z,26.10
2018-11-23T06:43:42.037Z,23.00
2018-11-23T06:46:11.117Z,25.67
2018-11-23T06:48:39.025Z,26.50
2018-11-23T06:51:07.154Z,27.20
2018-11-23T06:53:35.077Z,25.97
2018-11-23T06:56:03.653Z,25.03
2018-11-23T06:58:31.665Z,24.53
2018-11-23T07:00:59.572Z,22.10
2018-11-23T07:03:28.073Z,23.87
2018-11-23T07:05:56.449Z,23.57
2018-11-23T07:08:24.686Z,24.20
2018-11-23T07:10:52.808Z,23.57
2018-11-23T07:13:20.727Z,24.20
2018-11-23T07:15:48.693Z,22.70
2018-11-23T07:18:16.675Z,23.97
2018-11-23T07:20:44.589Z,23.57
2018-11-23T07:23:12.525Z,22.97
2018-11-23T07:25:40.445Z,23.53
2018-11-23T07:28:15.089Z,25.80
2018-11-23T07:30:36.472Z,23.23
2018-11-23T07:33:04.605Z,25.10
2018-11-23T07:35:32.531Z,23.33
2018-11-23T07:38:00.445Z,23.93
2018-11-23T07:40:38.752Z,23.83
2018-11-23T07:43:06.685Z,23.00
2018-11-23T16:02:55.564Z,13.37
2018-11-23T16:05:23.664Z,12.90
2018-11-23T16:07:52.063Z,10.33
2018-11-23T16:10:21.798Z,13.80
2018-11-23T16:12:50.932Z,8.70
2018-11-23T16:15:19.573Z,7.70
2018-11-23T16:17:47.878Z,8.87
2018-11-23T16:20:17.987Z,7.97
2018-11-23T16:22:47.172Z,9.10
2018-11-23T16:25:15.093Z,8.80
2018-11-23T16:27:44.070Z,8.40
2018-11-23T16:30:15.090Z,8.10
2018-11-23T16:32:43.521Z,8.00
2018-11-23T16:35:11.571Z,7.97
2018-11-23T16:37:39.498Z,8.20
2018-11-23T16:40:08.289Z,8.00
2018-11-23T16:42:36.388Z,8.17
2018-11-23T16:45:04.737Z,8.03
2018-11-23T16:47:32.653Z,7.17
2018-11-23T16:50:00.556Z,7.93
2018-11-23T16:52:28.510Z,7.10
2018-11-23T16:54:56.417Z,6.60
2018-11-23T16:57:24.405Z,7.90
2018-11-23T16:59:52.318Z,7.80
2018-11-23T17:02:20.257Z,7.70
2018-11-23T17:04:47.841Z,7.17
2018-11-23T17:07:15.765Z,7.03
2018-11-23T17:09:44.188Z,6.90
2018-11-23T17:12:11.589Z,6.73
2018-11-23T17:14:39.506Z,6.73
2018-11-23T17:17:07.409Z,7.03
2018-11-23T17:19:36.658Z,7.60
2018-11-23T17:22:04.974Z,6.47
2018-11-23T17:24:32.883Z,6.67
2018-11-23T17:27:00.789Z,6.23
2018-11-23T17:29:28.708Z,6.30
2018-11-23T17:31:56.611Z,6.77
2018-11-23T17:34:24.529Z,6.87
2018-11-23T17:36:52.453Z,6.87
2018-11-23T17:39:20.365Z,6.43
2018-11-23T17:41:48.509Z,6.87
2018-11-23T17:44:16.465Z,7.17
2018-11-23T17:46:44.448Z,7.63
2018-11-23T17:49:12.373Z,7.50
2018-11-23T17:51:40.292Z,7.93
2018-11-23T17:54:08.245Z,7.20
2018-11-23T17:56:36.198Z,8.40
2018-11-23T17:59:04.906Z,8.23
2018-11-23T18:01:32.072Z,6.93
2018-11-23T18:04:00.014Z,6.70
2018-11-23T18:06:27.919Z,7.13
2018-11-23T18:08:55.831Z,7.40
2018-11-23T18:11:23.733Z,8.20
2018-11-23T18:13:51.653Z,8.50
2018-11-23T18:16:19.620Z,7.63
2018-11-23T18:18:47.557Z,8.20
2018-11-23T18:21:16.595Z,7.27
2018-11-23T18:23:44.529Z,7.93
2018-11-23T18:26:12.462Z,7.70
2018-11-23T18:28:40.375Z,8.07
2018-11-23T18:31:08.289Z,8.33
2018-11-23T18:33:36.208Z,7.20
2018-11-23T18:36:04.293Z,7.50
2018-11-23T18:38:32.219Z,6.90
2018-11-23T18:41:00.128Z,8.27
2018-11-23T18:43:28.065Z,8.50
2018-11-23T18:45:55.969Z,7.87
2018-11-23T18:48:23.874Z,8.57
2018-11-23T18:50:51.793Z,9.10
2018-11-23T18:53:19.733Z,7.90
2018-11-23T18:55:47.637Z,9.70
2018-11-23T18:58:15.554Z,10.23
2018-11-23T19:00:43.481Z,9.17
2018-11-23T19:03:11.403Z,9.87
2018-11-23T19:05:39.317Z,9.87
2018-11-23T19:08:07.249Z,10.63
2018-11-23T19:10:35.177Z,9.17
2018-11-23T19:13:03.093Z,9.97
2018-11-23T19:15:30.996Z,9.60
2018-11-23T19:17:58.925Z,9.50
2018-11-23T19:20:26.841Z,9.87
2018-11-23T19:22:55.372Z,9.87
2018-11-23T19:25:23.319Z,10.27
2018-11-23T19:27:51.214Z,9.93
2018-11-23T19:30:19.616Z,11.20
2018-11-23T19:32:47.556Z,8.80
2018-11-23T19:35:15.449Z,9.53
2018-11-23T19:37:43.360Z,10.27
2018-11-23T19:40:12.741Z,11.40
2018-11-23T19:42:40.692Z,11.93
2018-11-23T19:45:13.932Z,11.83
2018-11-23T19:47:41.889Z,8.67
2018-11-23T19:50:10.314Z,11.10
2018-11-23T19:52:38.236Z,12.27
2018-11-23T19:55:06.209Z,10.67
2018-11-23T19:57:34.120Z,10.90
2018-11-23T20:00:02.044Z,10.27
2018-11-23T20:02:29.949Z,11.90
2018-11-23T20:04:57.894Z,12.60
2018-11-23T20:07:25.832Z,13.27
2018-11-23T20:09:53.714Z,13.30
2018-11-23T20:12:21.621Z,13.73
2018-11-23T20:14:49.520Z,12.80
2018-11-23T20:17:17.435Z,13.17
2018-11-23T20:19:45.347Z,12.03
2018-11-23T20:22:13.271Z,12.10
2018-11-23T20:24:42.341Z,11.83
2018-11-23T20:27:10.265Z,12.37
2018-11-23T20:29:38.177Z,12.60
2018-11-23T20:32:06.104Z,12.07
2018-11-23T20:34:34.022Z,12.57
2018-11-23T20:37:01.966Z,13.27
2018-11-23T20:39:29.890Z,12.70
2018-11-23T20:41:57.809Z,13.23
2018-11-23T20:44:25.762Z,14.60
2018-11-23T20:46:53.725Z,12.10
2018-11-23T20:49:21.662Z,12.07
2018-11-23T20:51:49.573Z,12.97
2018-11-23T20:54:17.489Z,12.87
2018-11-23T20:56:45.406Z,11.97
2018-11-23T20:59:13.314Z,13.00
2018-11-23T21:01:41.221Z,14.50
2018-11-23T21:04:09.153Z,14.20
2018-11-23T21:06:37.060Z,14.00
2018-11-23T21:09:07.402Z,15.60
2018-11-23T21:11:35.316Z,16.23
2018-11-23T21:14:03.232Z,16.17
2018-11-23T21:16:31.155Z,14.07
2018-11-23T21:18:59.065Z,16.47
2018-11-23T21:21:27.010Z,18.00
2018-11-23T21:23:54.925Z,15.83
2018-11-23T21:26:23.297Z,15.83
2018-11-23T21:28:51.237Z,15.30
2018-11-23T21:31:19.149Z,14.90
2018-11-23T21:33:47.069Z,14.20
2018-11-23T21:36:14.982Z,14.40
2018-11-23T21:38:42.898Z,15.40
2018-11-23T21:41:10.822Z,14.93
2018-11-23T21:43:38.738Z,15.20
2018-11-23T21:46:06.645Z,15.10
2018-11-23T21:48:34.565Z,14.77
2018-11-23T21:51:02.465Z,15.43
2018-11-23T21:53:30.377Z,15.40
2018-11-23T21:55:58.289Z,19.40
2018-11-23T21:58:26.210Z,14.23
2018-11-23T22:00:54.113Z,22.27
2018-11-23T22:03:22.018Z,15.97
2018-11-23T22:05:49.957Z,13.63
2018-11-23T22:08:17.860Z,14.60
2018-11-23T22:10:45.778Z,13.70
2018-11-23T22:13:13.689Z,14.10
2018-11-23T22:15:41.617Z,15.40
2018-11-23T22:18:09.525Z,15.67
2018-11-23T22:20:37.469Z,15.37
2018-11-23T22:23:05.381Z,14.63
2018-11-23T22:25:33.309Z,15.33
2018-11-23T22:28:02.220Z,13.73
2018-11-23T22:30:30.442Z,13.23
2018-11-23T22:32:58.507Z,13.07
2018-11-23T22:35:26.975Z,13.17
2018-11-23T22:37:54.890Z,13.60
2018-11-23T22:40:22.812Z,13.40
2018-11-23T22:42:51.357Z,13.30
2018-11-23T22:45:19.294Z,12.60
2018-11-23T22:47:47.214Z,12.30
2018-11-23T22:50:22.022Z,14.80
2018-11-23T22:52:49.969Z,10.73
2018-11-23T22:55:18.205Z,10.60
2018-11-23T22:57:46.118Z,11.93
2018-11-23T23:00:23.737Z,12.37
2018-11-23T23:02:51.679Z,10.73
2018-11-23T23:05:20.065Z,12.60
2018-11-23T23:07:48.016Z,11.73
2018-11-23T23:10:15.933Z,13.10
2018-11-23T23:12:43.854Z,11.13
2018-11-23T23:15:11.842Z,12.53
2018-11-23T23:17:40.037Z,12.00
2018-11-23T23:20:08.784Z,11.90
2018-11-23T23:22:36.694Z,13.30
2018-11-23T23:25:04.821Z,12.37
2018-11-23T23:27:32.712Z,12.23
2018-11-23T23:30:01.766Z,12.13
2018-11-23T23:32:29.721Z,11.87
2018-11-23T23:34:57.633Z,12.57
2018-11-23T23:37:25.573Z,13.17
2018-11-23T23:39:53.511Z,12.17
2018-11-23T23:42:21.441Z,12.50
2018-11-23T23:44:49.364Z,12.80
2018-11-23T23:47:17.297Z,13.70
2018-11-23T23:49:45.225Z,12.83
2018-11-23T23:52:13.152Z,12.10
2018-11-23T23:54:41.061Z,11.70
2018-11-23T23:57:09.026Z,11.60
2018-11-23T23:59:36.914Z,11.43
